sensor_id;sensor_type;location;lat;lon;timestamp;P1;durP1;ratioP1;P2;durP2;ratioP2
24961;SDS011;12992;50.884;13.668;2023-05-18T00:01:31;10.25;;;3.00;;
24961;SDS011;12992;50.884;13.668;2023-05-18T00:03:56;6.65;;;2.53;;
24961;SDS011;12992;50.884;13.668;2023-05-18T00:06:22;7.32;;;2.50;;
24961;SDS011;12992;50.884;13.668;2023-05-18T00:08:49;5.55;;;2.25;;
24961;SDS011;12992;50.884;13.668;2023-05-18T00:11:16;4.00;;;2.17;;
24961;SDS011;12992;50.884;13.668;2023-05-18T00:13:41;7.82;;;2.40;;
24961;SDS011;12992;50.884;13.668;2023-05-18T00:16:07;5.53;;;1.92;;
24961;SDS011;12992;50.884;13.668;2023-05-18T00:18:33;5.38;;;2.38;;
24961;SDS011;12992;50.884;13.668;2023-05-18T00:20:58;6.85;;;2.42;;
24961;SDS011;12992;50.884;13.668;2023-05-18T00:23:27;9.23;;;2.30;;
24961;SDS011;12992;50.884;13.668;2023-05-18T00:25:57;5.28;;;2.30;;
24961;SDS011;12992;50.884;13.668;2023-05-18T00:28:26;7.53;;;2.55;;
24961;SDS011;12992;50.884;13.668;2023-05-18T00:30:54;6.88;;;2.45;;
24961;SDS011;12992;50.884;13.668;2023-05-18T00:33:20;4.82;;;2.30;;
24961;SDS011;12992;50.884;13.668;2023-05-18T00:35:46;5.20;;;2.40;;
24961;SDS011;12992;50.884;13.668;2023-05-18T00:38:11;10.35;;;1.98;;
24961;SDS011;12992;50.884;13.668;2023-05-18T00:40:38;5.65;;;2.00;;
24961;SDS011;12992;50.884;13.668;2023-05-18T00:43:03;7.03;;;2.40;;
24961;SDS011;12992;50.884;13.668;2023-05-18T00:45:29;8.50;;;2.60;;
24961;SDS011;12992;50.884;13.668;2023-05-18T00:47:54;5.38;;;2.22;;
24961;SDS011;12992;50.884;13.668;2023-05-18T00:50:20;6.22;;;2.20;;
24961;SDS011;12992;50.884;13.668;2023-05-18T00:52:45;7.45;;;2.25;;
24961;SDS011;12992;50.884;13.668;2023-05-18T00:55:11;5.82;;;2.00;;
24961;SDS011;12992;50.884;13.668;2023-05-18T00:57:38;8.65;;;2.60;;
24961;SDS011;12992;50.884;13.668;2023-05-18T01:00:08;6.45;;;2.20;;
24961;SDS011;12992;50.884;13.668;2023-05-18T01:02:35;4.40;;;2.22;;
24961;SDS011;12992;50.884;13.668;2023-05-18T01:05:08;6.60;;;2.30;;
24961;SDS011;12992;50.884;13.668;2023-05-18T01:07:36;6.10;;;2.22;;
24961;SDS011;12992;50.884;13.668;2023-05-18T01:10:02;8.07;;;2.63;;
24961;SDS011;12992;50.884;13.668;2023-05-18T01:12:40;5.82;;;2.42;;
24961;SDS011;12992;50.884;13.668;2023-05-18T01:15:13;7.90;;;2.70;;
24961;SDS011;12992;50.884;13.668;2023-05-18T01:17:55;4.28;;;2.25;;
24961;SDS011;12992;50.884;13.668;2023-05-18T01:26:27;4.93;;;2.40;;
24961;SDS011;12992;50.884;13.668;2023-05-18T01:28:57;5.32;;;2.58;;
24961;SDS011;12992;50.884;13.668;2023-05-18T01:31:25;7.38;;;2.58;;
24961;SDS011;12992;50.884;13.668;2023-05-18T01:33:51;6.03;;;2.30;;
24961;SDS011;12992;50.884;13.668;2023-05-18T01:36:16;6.78;;;2.38;;
24961;SDS011;12992;50.884;13.668;2023-05-18T01:38:42;5.57;;;2.22;;
24961;SDS011;12992;50.884;13.668;2023-05-18T01:49:42;10.05;;;2.50;;
24961;SDS011;12992;50.884;13.668;2023-05-18T01:52:13;5.93;;;2.50;;
24961;SDS011;12992;50.884;13.668;2023-05-18T01:54:43;6.03;;;2.60;;
24961;SDS011;12992;50.884;13.668;2023-05-18T01:57:14;7.53;;;2.80;;
24961;SDS011;12992;50.884;13.668;2023-05-18T01:59:43;5.72;;;2.50;;
24961;SDS011;12992;50.884;13.668;2023-05-18T02:02:09;4.07;;;2.40;;
24961;SDS011;12992;50.884;13.668;2023-05-18T02:04:35;9.27;;;2.25;;
24961;SDS011;12992;50.884;13.668;2023-05-18T02:07:01;8.98;;;2.20;;
24961;SDS011;12992;50.884;13.668;2023-05-18T02:09:28;6.38;;;2.17;;
24961;SDS011;12992;50.884;13.668;2023-05-18T02:11:53;7.88;;;2.80;;
24961;SDS011;12992;50.884;13.668;2023-05-18T02:14:19;10.70;;;2.58;;
24961;SDS011;12992;50.884;13.668;2023-05-18T02:16:44;4.93;;;1.92;;
24961;SDS011;12992;50.884;13.668;2023-05-18T02:19:11;10.07;;;2.28;;
24961;SDS011;12992;50.884;13.668;2023-05-18T02:21:38;7.28;;;2.10;;
24961;SDS011;12992;50.884;13.668;2023-05-18T02:24:05;5.03;;;2.10;;
24961;SDS011;12992;50.884;13.668;2023-05-18T02:26:32;6.43;;;2.20;;
24961;SDS011;12992;50.884;13.668;2023-05-18T02:28:57;9.32;;;2.45;;
24961;SDS011;12992;50.884;13.668;2023-05-18T02:31:23;5.95;;;1.95;;
24961;SDS011;12992;50.884;13.668;2023-05-18T02:33:48;5.35;;;2.08;;
24961;SDS011;12992;50.884;13.668;2023-05-18T02:36:13;7.70;;;2.42;;
24961;SDS011;12992;50.884;13.668;2023-05-18T02:38:40;8.10;;;2.85;;
24961;SDS011;12992;50.884;13.668;2023-05-18T02:41:07;4.55;;;2.05;;
24961;SDS011;12992;50.884;13.668;2023-05-18T02:43:33;6.88;;;2.60;;
24961;SDS011;12992;50.884;13.668;2023-05-18T02:45:59;5.20;;;2.30;;
24961;SDS011;12992;50.884;13.668;2023-05-18T02:48:25;7.03;;;2.20;;
24961;SDS011;12992;50.884;13.668;2023-05-18T02:50:51;8.52;;;2.70;;
24961;SDS011;12992;50.884;13.668;2023-05-18T02:53:17;5.35;;;2.58;;
24961;SDS011;12992;50.884;13.668;2023-05-18T02:55:42;4.68;;;2.17;;
24961;SDS011;12992;50.884;13.668;2023-05-18T02:58:14;5.78;;;2.50;;
24961;SDS011;12992;50.884;13.668;2023-05-18T03:00:58;5.85;;;2.35;;
24961;SDS011;12992;50.884;13.668;2023-05-18T03:03:26;9.05;;;2.60;;
24961;SDS011;12992;50.884;13.668;2023-05-18T03:05:52;7.80;;;2.40;;
24961;SDS011;12992;50.884;13.668;2023-05-18T03:08:18;6.95;;;2.55;;
24961;SDS011;12992;50.884;13.668;2023-05-18T03:10:46;10.75;;;4.60;;
24961;SDS011;12992;50.884;13.668;2023-05-18T03:13:12;19.38;;;8.85;;
24961;SDS011;12992;50.884;13.668;2023-05-18T03:15:37;8.82;;;5.68;;
24961;SDS011;12992;50.884;13.668;2023-05-18T03:18:03;6.95;;;3.50;;
24961;SDS011;12992;50.884;13.668;2023-05-18T03:20:29;11.18;;;6.18;;
24961;SDS011;12992;50.884;13.668;2023-05-18T03:22:55;6.85;;;3.30;;
24961;SDS011;12992;50.884;13.668;2023-05-18T03:25:21;8.13;;;3.10;;
24961;SDS011;12992;50.884;13.668;2023-05-18T03:27:47;7.05;;;3.00;;
24961;SDS011;12992;50.884;13.668;2023-05-18T03:30:12;7.88;;;2.65;;
24961;SDS011;12992;50.884;13.668;2023-05-18T03:32:38;5.93;;;2.45;;
24961;SDS011;12992;50.884;13.668;2023-05-18T03:35:05;8.52;;;2.80;;
24961;SDS011;12992;50.884;13.668;2023-05-18T03:37:31;7.82;;;3.97;;
24961;SDS011;12992;50.884;13.668;2023-05-18T03:39:58;5.05;;;2.67;;
24961;SDS011;12992;50.884;13.668;2023-05-18T03:42:25;6.78;;;3.05;;
24961;SDS011;12992;50.884;13.668;2023-05-18T03:44:50;9.43;;;3.50;;
24961;SDS011;12992;50.884;13.668;2023-05-18T03:47:16;5.13;;;2.42;;
24961;SDS011;12992;50.884;13.668;2023-05-18T03:49:41;4.03;;;2.42;;
24961;SDS011;12992;50.884;13.668;2023-05-18T03:52:07;11.05;;;3.40;;
24961;SDS011;12992;50.884;13.668;2023-05-18T03:54:32;9.55;;;3.13;;
24961;SDS011;12992;50.884;13.668;2023-05-18T03:56:57;6.10;;;2.80;;
24961;SDS011;12992;50.884;13.668;2023-05-18T03:59:23;15.23;;;5.78;;
24961;SDS011;12992;50.884;13.668;2023-05-18T04:01:49;8.02;;;3.20;;
24961;SDS011;12992;50.884;13.668;2023-05-18T04:04:18;7.25;;;2.60;;
24961;SDS011;12992;50.884;13.668;2023-05-18T04:06:47;7.05;;;3.00;;
24961;SDS011;12992;50.884;13.668;2023-05-18T04:09:15;5.13;;;2.92;;
24961;SDS011;12992;50.884;13.668;2023-05-18T04:11:41;8.55;;;2.88;;
24961;SDS011;12992;50.884;13.668;2023-05-18T04:14:08;9.27;;;2.55;;
24961;SDS011;12992;50.884;13.668;2023-05-18T04:16:33;8.43;;;2.67;;
24961;SDS011;12992;50.884;13.668;2023-05-18T04:18:59;7.20;;;2.42;;
24961;SDS011;12992;50.884;13.668;2023-05-18T04:21:25;7.57;;;4.03;;
24961;SDS011;12992;50.884;13.668;2023-05-18T04:23:50;3.97;;;2.47;;
24961;SDS011;12992;50.884;13.668;2023-05-18T04:26:16;7.15;;;2.60;;
24961;SDS011;12992;50.884;13.668;2023-05-18T04:28:45;9.85;;;2.90;;
24961;SDS011;12992;50.884;13.668;2023-05-18T04:31:14;5.93;;;2.22;;
24961;SDS011;12992;50.884;13.668;2023-05-18T04:33:41;4.38;;;2.00;;
24961;SDS011;12992;50.884;13.668;2023-05-18T04:36:11;5.63;;;2.53;;
24961;SDS011;12992;50.884;13.668;2023-05-18T04:38:36;5.97;;;2.80;;
24961;SDS011;12992;50.884;13.668;2023-05-18T04:41:02;7.30;;;2.40;;
24961;SDS011;12992;50.884;13.668;2023-05-18T04:43:32;6.20;;;2.75;;
24961;SDS011;12992;50.884;13.668;2023-05-18T04:45:58;7.63;;;3.17;;
24961;SDS011;12992;50.884;13.668;2023-05-18T04:48:24;5.93;;;2.63;;
24961;SDS011;12992;50.884;13.668;2023-05-18T04:50:50;8.68;;;2.33;;
24961;SDS011;12992;50.884;13.668;2023-05-18T04:53:19;6.45;;;2.05;;
24961;SDS011;12992;50.884;13.668;2023-05-18T04:55:45;7.80;;;2.35;;
24961;SDS011;12992;50.884;13.668;2023-05-18T04:58:14;7.47;;;2.25;;
24961;SDS011;12992;50.884;13.668;2023-05-18T05:00:41;6.80;;;2.50;;
24961;SDS011;12992;50.884;13.668;2023-05-18T05:03:07;6.55;;;2.42;;
24961;SDS011;12992;50.884;13.668;2023-05-18T05:05:33;10.52;;;2.13;;
24961;SDS011;12992;50.884;13.668;2023-05-18T05:07:59;5.00;;;2.35;;
24961;SDS011;12992;50.884;13.668;2023-05-18T05:10:25;6.55;;;2.38;;
24961;SDS011;12992;50.884;13.668;2023-05-18T05:12:52;6.35;;;2.85;;
24961;SDS011;12992;50.884;13.668;2023-05-18T05:15:18;10.23;;;2.65;;
24961;SDS011;12992;50.884;13.668;2023-05-18T05:17:46;6.38;;;2.03;;
24961;SDS011;12992;50.884;13.668;2023-05-18T05:20:12;7.28;;;2.00;;
24961;SDS011;12992;50.884;13.668;2023-05-18T05:22:37;7.15;;;2.63;;
24961;SDS011;12992;50.884;13.668;2023-05-18T05:25:05;3.25;;;1.98;;
24961;SDS011;12992;50.884;13.668;2023-05-18T05:27:32;8.10;;;2.30;;
24961;SDS011;12992;50.884;13.668;2023-05-18T05:29:58;5.05;;;2.33;;
24961;SDS011;12992;50.884;13.668;2023-05-18T05:32:23;8.75;;;2.63;;
24961;SDS011;12992;50.884;13.668;2023-05-18T05:34:49;5.43;;;2.40;;
24961;SDS011;12992;50.884;13.668;2023-05-18T05:37:16;10.88;;;2.95;;
24961;SDS011;12992;50.884;13.668;2023-05-18T05:39:43;6.63;;;2.47;;
24961;SDS011;12992;50.884;13.668;2023-05-18T05:42:08;6.72;;;2.53;;
24961;SDS011;12992;50.884;13.668;2023-05-18T05:44:34;6.53;;;2.67;;
24961;SDS011;12992;50.884;13.668;2023-05-18T05:47:00;8.10;;;2.95;;
24961;SDS011;12992;50.884;13.668;2023-05-18T05:49:26;9.10;;;2.30;;
24961;SDS011;12992;50.884;13.668;2023-05-18T05:51:52;10.65;;;2.92;;
24961;SDS011;12992;50.884;13.668;2023-05-18T05:54:18;9.73;;;2.83;;
24961;SDS011;12992;50.884;13.668;2023-05-18T05:56:43;7.13;;;2.70;;
24961;SDS011;12992;50.884;13.668;2023-05-18T05:59:09;8.00;;;2.63;;
24961;SDS011;12992;50.884;13.668;2023-05-18T06:01:34;9.95;;;2.30;;
24961;SDS011;12992;50.884;13.668;2023-05-18T06:04:00;7.40;;;2.70;;
24961;SDS011;12992;50.884;13.668;2023-05-18T06:06:27;9.93;;;3.00;;
24961;SDS011;12992;50.884;13.668;2023-05-18T06:08:54;9.60;;;2.45;;
24961;SDS011;12992;50.884;13.668;2023-05-18T06:11:19;13.38;;;3.22;;
24961;SDS011;12992;50.884;13.668;2023-05-18T06:13:45;8.10;;;2.75;;
24961;SDS011;12992;50.884;13.668;2023-05-18T06:16:11;8.60;;;2.10;;
24961;SDS011;12992;50.884;13.668;2023-05-18T06:18:36;11.95;;;2.40;;
24961;SDS011;12992;50.884;13.668;2023-05-18T06:21:03;9.27;;;2.25;;
24961;SDS011;12992;50.884;13.668;2023-05-18T06:23:30;6.72;;;2.20;;
24961;SDS011;12992;50.884;13.668;2023-05-18T06:26:01;7.97;;;2.28;;
24961;SDS011;12992;50.884;13.668;2023-05-18T06:28:44;7.63;;;2.00;;
24961;SDS011;12992;50.884;13.668;2023-05-18T06:31:42;8.38;;;2.60;;
24961;SDS011;12992;50.884;13.668;2023-05-18T06:34:16;7.82;;;2.20;;
24961;SDS011;12992;50.884;13.668;2023-05-18T06:36:41;7.05;;;1.90;;
24961;SDS011;12992;50.884;13.668;2023-05-18T06:39:07;10.85;;;2.55;;
24961;SDS011;12992;50.884;13.668;2023-05-18T06:41:32;10.15;;;2.30;;
24961;SDS011;12992;50.884;13.668;2023-05-18T06:43:58;7.35;;;2.90;;
24961;SDS011;12992;50.884;13.668;2023-05-18T06:46:33;5.88;;;2.05;;
24961;SDS011;12992;50.884;13.668;2023-05-18T06:49:00;8.88;;;1.73;;
24961;SDS011;12992;50.884;13.668;2023-05-18T06:51:26;10.18;;;2.42;;
24961;SDS011;12992;50.884;13.668;2023-05-18T06:53:53;6.78;;;2.15;;
24961;SDS011;12992;50.884;13.668;2023-05-18T06:56:19;6.70;;;1.90;;
24961;SDS011;12992;50.884;13.668;2023-05-18T06:58:45;10.27;;;2.10;;
24961;SDS011;12992;50.884;13.668;2023-05-18T07:01:11;10.70;;;2.35;;
24961;SDS011;12992;50.884;13.668;2023-05-18T07:03:37;5.35;;;1.98;;
24961;SDS011;12992;50.884;13.668;2023-05-18T07:06:02;5.10;;;1.75;;
24961;SDS011;12992;50.884;13.668;2023-05-18T07:08:29;4.32;;;2.08;;
24961;SDS011;12992;50.884;13.668;2023-05-18T07:10:54;4.95;;;1.98;;
24961;SDS011;12992;50.884;13.668;2023-05-18T07:13:21;5.80;;;1.70;;
24961;SDS011;12992;50.884;13.668;2023-05-18T07:15:47;7.45;;;1.88;;
24961;SDS011;12992;50.884;13.668;2023-05-18T07:18:13;4.25;;;1.70;;
24961;SDS011;12992;50.884;13.668;2023-05-18T07:20:38;6.65;;;1.70;;
24961;SDS011;12992;50.884;13.668;2023-05-18T07:23:03;3.47;;;1.67;;
24961;SDS011;12992;50.884;13.668;2023-05-18T07:25:29;5.13;;;1.90;;
24961;SDS011;12992;50.884;13.668;2023-05-18T07:27:54;6.43;;;1.60;;
24961;SDS011;12992;50.884;13.668;2023-05-18T07:30:20;6.80;;;1.90;;
24961;SDS011;12992;50.884;13.668;2023-05-18T07:32:46;9.32;;;1.60;;
24961;SDS011;12992;50.884;13.668;2023-05-18T07:35:12;4.78;;;1.70;;
24961;SDS011;12992;50.884;13.668;2023-05-18T07:37:37;5.13;;;1.73;;
24961;SDS011;12992;50.884;13.668;2023-05-18T07:40:03;5.32;;;1.65;;
24961;SDS011;12992;50.884;13.668;2023-05-18T07:42:29;9.43;;;1.85;;
24961;SDS011;12992;50.884;13.668;2023-05-18T07:44:54;8.98;;;2.17;;
24961;SDS011;12992;50.884;13.668;2023-05-18T07:47:20;7.30;;;2.30;;
24961;SDS011;12992;50.884;13.668;2023-05-18T07:49:46;8.88;;;2.03;;
24961;SDS011;12992;50.884;13.668;2023-05-18T07:52:12;7.72;;;1.85;;
24961;SDS011;12992;50.884;13.668;2023-05-18T07:54:37;10.65;;;1.85;;
24961;SDS011;12992;50.884;13.668;2023-05-18T07:57:02;4.10;;;1.95;;
24961;SDS011;12992;50.884;13.668;2023-05-18T07:59:28;7.10;;;1.63;;
24961;SDS011;12992;50.884;13.668;2023-05-18T08:01:53;7.15;;;1.77;;
24961;SDS011;12992;50.884;13.668;2023-05-18T08:04:19;6.43;;;1.85;;
24961;SDS011;12992;50.884;13.668;2023-05-18T08:06:45;5.45;;;1.55;;
24961;SDS011;12992;50.884;13.668;2023-05-18T08:09:11;10.27;;;2.22;;
24961;SDS011;12992;50.884;13.668;2023-05-18T08:11:36;5.82;;;1.65;;
24961;SDS011;12992;50.884;13.668;2023-05-18T08:14:01;7.55;;;1.92;;
24961;SDS011;12992;50.884;13.668;2023-05-18T08:16:27;6.03;;;1.92;;
24961;SDS011;12992;50.884;13.668;2023-05-18T08:18:52;7.85;;;1.90;;
24961;SDS011;12992;50.884;13.668;2023-05-18T08:21:17;6.50;;;1.95;;
24961;SDS011;12992;50.884;13.668;2023-05-18T08:23:43;8.95;;;1.60;;
24961;SDS011;12992;50.884;13.668;2023-05-18T08:26:08;6.40;;;1.73;;
24961;SDS011;12992;50.884;13.668;2023-05-18T08:28:33;5.30;;;1.75;;
24961;SDS011;12992;50.884;13.668;2023-05-18T08:30:59;7.63;;;1.83;;
24961;SDS011;12992;50.884;13.668;2023-05-18T08:33:24;6.63;;;2.90;;
24961;SDS011;12992;50.884;13.668;2023-05-18T08:35:50;6.28;;;2.13;;
24961;SDS011;12992;50.884;13.668;2023-05-18T08:38:15;8.43;;;2.40;;
24961;SDS011;12992;50.884;13.668;2023-05-18T08:40:41;6.00;;;1.80;;
24961;SDS011;12992;50.884;13.668;2023-05-18T08:43:27;5.20;;;1.65;;
24961;SDS011;12992;50.884;13.668;2023-05-18T08:46:09;6.68;;;1.70;;
24961;SDS011;12992;50.884;13.668;2023-05-18T08:48:42;6.15;;;1.83;;
24961;SDS011;12992;50.884;13.668;2023-05-18T08:51:09;5.63;;;1.90;;
24961;SDS011;12992;50.884;13.668;2023-05-18T08:53:36;4.15;;;1.75;;
24961;SDS011;12992;50.884;13.668;2023-05-18T08:56:03;4.70;;;1.50;;
24961;SDS011;12992;50.884;13.668;2023-05-18T08:58:34;6.38;;;1.50;;
24961;SDS011;12992;50.884;13.668;2023-05-18T09:01:02;3.97;;;1.58;;
24961;SDS011;12992;50.884;13.668;2023-05-18T09:03:28;6.32;;;1.50;;
24961;SDS011;12992;50.884;13.668;2023-05-18T09:05:55;7.43;;;1.77;;
24961;SDS011;12992;50.884;13.668;2023-05-18T09:08:23;6.70;;;1.55;;
24961;SDS011;12992;50.884;13.668;2023-05-18T09:10:49;3.28;;;1.42;;
24961;SDS011;12992;50.884;13.668;2023-05-18T09:13:15;3.85;;;1.70;;
24961;SDS011;12992;50.884;13.668;2023-05-18T09:15:46;5.90;;;1.60;;
24961;SDS011;12992;50.884;13.668;2023-05-18T09:18:12;5.13;;;1.80;;
24961;SDS011;12992;50.884;13.668;2023-05-18T09:20:37;3.80;;;1.40;;
24961;SDS011;12992;50.884;13.668;2023-05-18T09:23:03;7.68;;;1.60;;
24961;SDS011;12992;50.884;13.668;2023-05-18T09:25:29;10.82;;;1.83;;
24961;SDS011;12992;50.884;13.668;2023-05-18T09:27:59;6.88;;;1.90;;
24961;SDS011;12992;50.884;13.668;2023-05-18T09:30:24;4.47;;;1.70;;
24961;SDS011;12992;50.884;13.668;2023-05-18T09:32:50;5.05;;;1.80;;
24961;SDS011;12992;50.884;13.668;2023-05-18T09:35:16;5.53;;;1.83;;
24961;SDS011;12992;50.884;13.668;2023-05-18T09:37:42;2.85;;;1.48;;
24961;SDS011;12992;50.884;13.668;2023-05-18T09:40:08;3.78;;;1.40;;
24961;SDS011;12992;50.884;13.668;2023-05-18T09:45:04;4.40;;;1.40;;
24961;SDS011;12992;50.884;13.668;2023-05-18T09:47:43;6.70;;;1.90;;
24961;SDS011;12992;50.884;13.668;2023-05-18T09:50:09;6.30;;;1.73;;
24961;SDS011;12992;50.884;13.668;2023-05-18T09:52:44;6.38;;;1.75;;
24961;SDS011;12992;50.884;13.668;2023-05-18T09:55:11;7.68;;;2.50;;
24961;SDS011;12992;50.884;13.668;2023-05-18T09:57:39;6.32;;;2.05;;
24961;SDS011;12992;50.884;13.668;2023-05-18T10:00:07;4.90;;;2.00;;
24961;SDS011;12992;50.884;13.668;2023-05-18T10:02:38;6.80;;;1.90;;
24961;SDS011;12992;50.884;13.668;2023-05-18T10:05:05;8.15;;;1.92;;
24961;SDS011;12992;50.884;13.668;2023-05-18T10:07:32;6.25;;;2.08;;
24961;SDS011;12992;50.884;13.668;2023-05-18T10:10:02;5.28;;;1.85;;
24961;SDS011;12992;50.884;13.668;2023-05-18T10:12:27;9.95;;;1.88;;
24961;SDS011;12992;50.884;13.668;2023-05-18T10:14:53;5.43;;;1.90;;
24961;SDS011;12992;50.884;13.668;2023-05-18T10:17:18;6.88;;;1.85;;
24961;SDS011;12992;50.884;13.668;2023-05-18T10:19:44;3.53;;;1.83;;
24961;SDS011;12992;50.884;13.668;2023-05-18T10:22:11;5.45;;;1.83;;
24961;SDS011;12992;50.884;13.668;2023-05-18T10:24:40;7.22;;;2.17;;
24961;SDS011;12992;50.884;13.668;2023-05-18T10:27:09;6.80;;;1.65;;
24961;SDS011;12992;50.884;13.668;2023-05-18T10:29:35;6.80;;;1.95;;
24961;SDS011;12992;50.884;13.668;2023-05-18T10:32:04;6.45;;;1.70;;
24961;SDS011;12992;50.884;13.668;2023-05-18T10:34:31;4.63;;;1.60;;
24961;SDS011;12992;50.884;13.668;2023-05-18T10:36:58;2.75;;;1.50;;
24961;SDS011;12992;50.884;13.668;2023-05-18T10:39:28;5.90;;;1.98;;
24961;SDS011;12992;50.884;13.668;2023-05-18T10:41:55;7.45;;;2.10;;
24961;SDS011;12992;50.884;13.668;2023-05-18T10:44:23;7.68;;;1.38;;
24961;SDS011;12992;50.884;13.668;2023-05-18T10:46:49;5.80;;;1.60;;
24961;SDS011;12992;50.884;13.668;2023-05-18T10:49:18;7.18;;;1.63;;
24961;SDS011;12992;50.884;13.668;2023-05-18T10:51:49;3.53;;;1.77;;
24961;SDS011;12992;50.884;13.668;2023-05-18T10:54:17;4.05;;;1.90;;
24961;SDS011;12992;50.884;13.668;2023-05-18T10:56:44;5.82;;;1.98;;
24961;SDS011;12992;50.884;13.668;2023-05-18T10:59:12;7.47;;;2.17;;
24961;SDS011;12992;50.884;13.668;2023-05-18T11:01:39;4.43;;;1.80;;
24961;SDS011;12992;50.884;13.668;2023-05-18T11:04:06;6.72;;;1.77;;
24961;SDS011;12992;50.884;13.668;2023-05-18T11:06:32;6.30;;;2.25;;
24961;SDS011;12992;50.884;13.668;2023-05-18T11:08:59;5.13;;;1.52;;
24961;SDS011;12992;50.884;13.668;2023-05-18T11:11:25;4.70;;;1.92;;
24961;SDS011;12992;50.884;13.668;2023-05-18T11:13:54;6.03;;;1.90;;
24961;SDS011;12992;50.884;13.668;2023-05-18T11:16:31;5.20;;;1.70;;
24961;SDS011;12992;50.884;13.668;2023-05-18T11:19:04;5.50;;;1.60;;
24961;SDS011;12992;50.884;13.668;2023-05-18T11:26:55;4.03;;;1.48;;
24961;SDS011;12992;50.884;13.668;2023-05-18T11:29:41;4.25;;;1.45;;
24961;SDS011;12992;50.884;13.668;2023-05-18T11:34:50;7.35;;;1.60;;
24961;SDS011;12992;50.884;13.668;2023-05-18T11:38:01;5.55;;;1.45;;
24961;SDS011;12992;50.884;13.668;2023-05-18T11:40:02;5.25;;;1.92;;
24961;SDS011;12992;50.884;13.668;2023-05-18T11:42:32;2.00;;;1.23;;
24961;SDS011;12992;50.884;13.668;2023-05-18T11:45:04;4.03;;;1.48;;
24961;SDS011;12992;50.884;13.668;2023-05-18T11:47:31;5.25;;;1.48;;
24961;SDS011;12992;50.884;13.668;2023-05-18T11:49:57;8.10;;;1.85;;
24961;SDS011;12992;50.884;13.668;2023-05-18T11:52:23;5.40;;;1.50;;
24961;SDS011;12992;50.884;13.668;2023-05-18T11:54:59;4.05;;;1.50;;
24961;SDS011;12992;50.884;13.668;2023-05-18T11:59:59;5.00;;;1.73;;
24961;SDS011;12992;50.884;13.668;2023-05-18T12:02:30;5.60;;;1.70;;
24961;SDS011;12992;50.884;13.668;2023-05-18T12:04:56;4.70;;;1.70;;
24961;SDS011;12992;50.884;13.668;2023-05-18T12:07:24;4.13;;;1.42;;
24961;SDS011;12992;50.884;13.668;2023-05-18T12:09:52;7.18;;;1.92;;
24961;SDS011;12992;50.884;13.668;2023-05-18T12:12:21;5.00;;;1.70;;
24961;SDS011;12992;50.884;13.668;2023-05-18T12:14:51;5.43;;;1.60;;
24961;SDS011;12992;50.884;13.668;2023-05-18T12:17:19;5.22;;;1.55;;
24961;SDS011;12992;50.884;13.668;2023-05-18T12:19:46;5.82;;;1.65;;
24961;SDS011;12992;50.884;13.668;2023-05-18T12:22:12;9.35;;;1.80;;
24961;SDS011;12992;50.884;13.668;2023-05-18T12:24:38;8.25;;;3.00;;
24961;SDS011;12992;50.884;13.668;2023-05-18T12:27:05;4.30;;;1.90;;
24961;SDS011;12992;50.884;13.668;2023-05-18T12:29:32;4.15;;;1.50;;
24961;SDS011;12992;50.884;13.668;2023-05-18T12:31:58;7.55;;;1.70;;
24961;SDS011;12992;50.884;13.668;2023-05-18T12:34:29;6.43;;;1.63;;
24961;SDS011;12992;50.884;13.668;2023-05-18T12:36:55;3.10;;;1.40;;
24961;SDS011;12992;50.884;13.668;2023-05-18T12:39:20;3.88;;;1.70;;
24961;SDS011;12992;50.884;13.668;2023-05-18T12:41:46;11.82;;;1.70;;
24961;SDS011;12992;50.884;13.668;2023-05-18T12:44:12;5.00;;;1.58;;
24961;SDS011;12992;50.884;13.668;2023-05-18T12:46:37;4.13;;;1.60;;
24961;SDS011;12992;50.884;13.668;2023-05-18T12:49:03;5.65;;;1.52;;
24961;SDS011;12992;50.884;13.668;2023-05-18T12:51:33;3.22;;;1.65;;
24961;SDS011;12992;50.884;13.668;2023-05-18T12:59:16;4.47;;;1.80;;
24961;SDS011;12992;50.884;13.668;2023-05-18T13:01:44;7.03;;;1.88;;
24961;SDS011;12992;50.884;13.668;2023-05-18T13:04:10;6.50;;;1.83;;
24961;SDS011;12992;50.884;13.668;2023-05-18T13:06:36;4.38;;;1.42;;
24961;SDS011;12992;50.884;13.668;2023-05-18T13:09:06;7.97;;;1.70;;
24961;SDS011;12992;50.884;13.668;2023-05-18T13:11:32;6.22;;;1.73;;
24961;SDS011;12992;50.884;13.668;2023-05-18T13:13:59;6.22;;;1.58;;
24961;SDS011;12992;50.884;13.668;2023-05-18T13:16:26;6.30;;;1.63;;
24961;SDS011;12992;50.884;13.668;2023-05-18T13:18:54;5.57;;;1.45;;
24961;SDS011;12992;50.884;13.668;2023-05-18T13:21:23;5.15;;;1.63;;
24961;SDS011;12992;50.884;13.668;2023-05-18T13:23:49;4.85;;;1.60;;
24961;SDS011;12992;50.884;13.668;2023-05-18T13:26:14;4.45;;;1.50;;
24961;SDS011;12992;50.884;13.668;2023-05-18T13:28:40;5.15;;;1.90;;
24961;SDS011;12992;50.884;13.668;2023-05-18T13:31:05;2.58;;;1.55;;
24961;SDS011;12992;50.884;13.668;2023-05-18T13:33:30;9.55;;;1.63;;
24961;SDS011;12992;50.884;13.668;2023-05-18T13:35:56;4.55;;;1.90;;
24961;SDS011;12992;50.884;13.668;2023-05-18T13:38:21;6.18;;;2.00;;
24961;SDS011;12992;50.884;13.668;2023-05-18T13:40:46;4.95;;;1.42;;
24961;SDS011;12992;50.884;13.668;2023-05-18T13:43:12;4.07;;;1.63;;
24961;SDS011;12992;50.884;13.668;2023-05-18T13:45:37;4.85;;;1.60;;
24961;SDS011;12992;50.884;13.668;2023-05-18T13:48:02;2.42;;;1.23;;
24961;SDS011;12992;50.884;13.668;2023-05-18T13:50:32;5.93;;;2.40;;
24961;SDS011;12992;50.884;13.668;2023-05-18T13:52:58;5.97;;;1.52;;
24961;SDS011;12992;50.884;13.668;2023-05-18T13:55:23;6.20;;;1.77;;
24961;SDS011;12992;50.884;13.668;2023-05-18T13:57:49;6.43;;;2.10;;
24961;SDS011;12992;50.884;13.668;2023-05-18T14:00:15;4.15;;;1.50;;
24961;SDS011;12992;50.884;13.668;2023-05-18T14:02:43;5.90;;;1.83;;
24961;SDS011;12992;50.884;13.668;2023-05-18T14:05:10;8.45;;;1.90;;
24961;SDS011;12992;50.884;13.668;2023-05-18T14:07:41;3.88;;;1.70;;
24961;SDS011;12992;50.884;13.668;2023-05-18T14:10:08;5.97;;;2.00;;
24961;SDS011;12992;50.884;13.668;2023-05-18T14:12:35;8.07;;;1.60;;
24961;SDS011;12992;50.884;13.668;2023-05-18T14:15:01;5.88;;;1.70;;
24961;SDS011;12992;50.884;13.668;2023-05-18T14:17:27;5.40;;;1.52;;
24961;SDS011;12992;50.884;13.668;2023-05-18T14:19:56;6.10;;;1.50;;
24961;SDS011;12992;50.884;13.668;2023-05-18T14:22:22;5.32;;;1.70;;
24961;SDS011;12992;50.884;13.668;2023-05-18T14:24:50;9.60;;;1.67;;
24961;SDS011;12992;50.884;13.668;2023-05-18T14:27:15;7.80;;;1.67;;
24961;SDS011;12992;50.884;13.668;2023-05-18T14:29:41;7.38;;;1.50;;
24961;SDS011;12992;50.884;13.668;2023-05-18T14:32:06;4.78;;;1.67;;
24961;SDS011;12992;50.884;13.668;2023-05-18T14:34:32;5.57;;;1.70;;
24961;SDS011;12992;50.884;13.668;2023-05-18T14:36:57;7.05;;;1.70;;
24961;SDS011;12992;50.884;13.668;2023-05-18T14:39:23;6.18;;;1.80;;
24961;SDS011;12992;50.884;13.668;2023-05-18T14:41:48;3.75;;;1.42;;
24961;SDS011;12992;50.884;13.668;2023-05-18T14:44:13;1.70;;;1.23;;
24961;SDS011;12992;50.884;13.668;2023-05-18T14:46:39;5.05;;;1.50;;
24961;SDS011;12992;50.884;13.668;2023-05-18T14:49:04;3.42;;;1.50;;
24961;SDS011;12992;50.884;13.668;2023-05-18T14:51:30;5.80;;;1.58;;
24961;SDS011;12992;50.884;13.668;2023-05-18T14:53:55;4.00;;;1.27;;
24961;SDS011;12992;50.884;13.668;2023-05-18T14:56:21;4.53;;;1.30;;
24961;SDS011;12992;50.884;13.668;2023-05-18T14:58:46;4.40;;;1.27;;
24961;SDS011;12992;50.884;13.668;2023-05-18T15:01:12;2.58;;;1.20;;
24961;SDS011;12992;50.884;13.668;2023-05-18T15:03:37;4.65;;;1.42;;
24961;SDS011;12992;50.884;13.668;2023-05-18T15:06:02;5.97;;;1.75;;